RKSO/OSN METAR and TAF weather

Enter ICAO airport designator
Station Type Date Time Source
RKSO METAR 2019/08/22 19:58 UTC NOAA

RKSO 221958Z 23004KT 4SM BR BKN170 23/21 A2975 RMK AO2A SLP077 T02320211 $


Station Type Date Time Source
RKSO Decoded METAR 2019/08/22 19:58 UTC NOAA

Station name not available
Aug 22, 2019 - 03:58 PM EDT / 2019.08.22 1958 UTC
Wind: from the SW (230 degrees) at 5 MPH (4 KT):0
Visibility: 4 mile(s):0
Sky conditions: mostly cloudy
Weather: mist
Temperature: 73.8 F (23.2 C)
Dew Point: 70.0 F (21.1 C)
Relative Humidity: 87%
Pressure (altimeter): 29.75 in. Hg (1007 hPa)
ob: RKSO 221958Z 23004KT 4SM BR BKN170 23/21 A2975 RMK AO2A SLP077 T02320211
cycle: 20

Station Type Date Time Source
RKSO TAF 2019/08/22 19:06 UTC NOAA

TAF TAF RKSO 221900Z 2219/2401 VRB06KT 6000 BR BKN040 BKN160 QNH2968INS
BECMG 2300/2302 28006KT 8000 HZ SCT040 BKN200 QNH2966INS
BECMG 2312/2313 27006KT 6000 BR BKN200 QNH2972INS TX32/2306Z TN20/2221Z

Example: see airport list